Terminal Aerodrome Forecast
Issued by NWS Jackson, MS

Home | Current Version | Previous Version | Text Only | Print | Product List | Glossary On
Versions: 1 2 3 4 5 6 7 8 9 10 11 12 13 14 15 16 17 18 19 20 21 22 23 24 25 26
000
FTUS44 KJAN 051100 RRA
TAFJAN
TAF
KJAN 051141Z 0512/0612 35015G23KT 4SM FZRAPL BR BKN009 OVC015
     FM051900 35016G25KT P6SM BKN010 OVC020
     FM052300 35012G19KT P6SM BKN015
     FM060700 36008KT P6SM SKC=

USA.gov is the U.S. government's official web portal to all federal, state and local government web resources and services.